Time;durP1;ratioP1;P1;durP2;ratioP2;P2;SDS_P1;SDS_P2;PMS_P1;PMS_P2;Temp;Humidity;BMP_temperature;BMP_pressure;BME280_temperature;BME280_humidity;BME280_pressure;Samples;Min_cycle;Max_cycle;Signal;HPM_P1;HPM_P2
2021/12/28 00:01:02;;;;;;;71.50;57.58;;;;;;;-0.39;97.48;100009.63;5057820;28;20013;-83
2021/12/28 00:03:28;;;;;;;68.55;57.15;;;;;;;-0.47;97.09;99991.91;5040880;28;20088;-82
2021/12/28 00:05:53;;;;;;;63.03;56.13;;;;;;;-0.42;97.36;99989.41;5040361;28;20014;-82
2021/12/28 00:08:19;;;;;;;63.43;56.60;;;;;;;-0.42;97.07;99989.41;5040728;28;20018;-82
2021/12/28 00:10:45;;;;;;;71.25;56.88;;;;;;;-0.41;97.02;99973.41;5057312;28;20044;-82
2021/12/28 00:13:10;;;;;;;63.67;55.95;;;;;;;-0.27;97.05;99991.13;5040605;28;20028;-84
2021/12/28 00:18:13;;;;;;;63.53;56.67;;;;;;;-0.30;97.07;99989.47;5057491;28;20013;-82
2021/12/28 00:20:43;;;;;;;60.60;54.57;;;;;;;-0.25;97.51;99992.84;5039977;28;20022;-83
2021/12/28 00:23:16;;;;;;;71.63;58.72;;;;;;;-0.27;97.35;99989.47;5036859;28;20301;-83
2021/12/28 00:25:42;;;;;;;62.67;55.40;;;;;;;-0.22;97.16;99987.81;5034658;28;20025;-83
2021/12/28 00:28:08;;;;;;;63.73;56.83;;;;;;;-0.23;97.10;99990.31;5030287;28;20056;-83
2021/12/28 00:30:33;;;;;;;64.20;56.90;;;;;;;-0.24;97.06;99984.44;5027038;28;20095;-83
2021/12/28 00:32:59;;;;;;;63.50;56.50;;;;;;;-0.20;97.26;99980.22;5026002;28;20029;-82
2021/12/28 00:35:27;;;;;;;73.32;58.97;;;;;;;-0.25;97.27;99966.72;5025795;28;20026;-82
2021/12/28 00:37:53;;;;;;;68.95;58.03;;;;;;;-0.23;97.77;99970.94;5028452;28;20021;-82
2021/12/28 00:40:18;;;;;;;72.72;59.25;;;;;;;-0.20;97.23;99970.09;5036871;28;20048;-82
2021/12/28 00:42:44;;;;;;;62.27;55.70;;;;;;;-0.26;97.45;99955.75;5040049;28;20014;-83
2021/12/28 00:45:11;;;;;;;68.60;58.95;;;;;;;-0.18;97.55;99973.47;5035053;28;20033;-83
2021/12/28 00:47:36;;;;;;;63.55;56.83;;;;;;;-0.13;97.32;99973.50;5034590;28;20017;-83
2021/12/28 00:50:02;;;;;;;65.73;57.37;;;;;;;-0.17;97.70;99967.59;5035729;28;20025;-82
2021/12/28 00:52:27;;;;;;;63.03;56.33;;;;;;;-0.10;97.43;99978.56;5033226;28;20210;-83
2021/12/28 00:54:53;;;;;;;61.17;53.90;;;;;;;-0.10;97.03;99960.88;5030942;28;20018;-82
2021/12/28 00:57:18;;;;;;;65.13;58.03;;;;;;;-0.21;96.95;99941.47;5040235;28;20085;-82
2021/12/28 00:59:43;;;;;;;63.27;56.07;;;;;;;-0.10;97.20;99961.69;5057078;28;20040;-83
2021/12/28 01:02:09;;;;;;;63.60;56.73;;;;;;;-0.14;97.32;99954.97;5037997;28;20034;-83
2021/12/28 01:04:34;;;;;;;61.97;55.10;;;;;;;-0.14;96.97;99961.69;5037392;28;20018;-83
2021/12/28 01:06:59;;;;;;;68.30;56.73;;;;;;;-0.21;97.47;99951.59;5037181;28;20056;-83
2021/12/28 01:09:30;;;;;;;62.80;56.10;;;;;;;-0.19;97.42;99942.31;5032656;28;20017;-83
2021/12/28 01:11:58;;;;;;;60.08;54.00;;;;;;;-0.11;97.38;99949.06;5034171;28;20031;-82
2021/12/28 01:14:23;;;;;;;69.05;59.35;;;;;;;-0.13;97.47;99954.09;5038439;28;20025;-82
2021/12/28 01:16:49;;;;;;;65.13;57.08;;;;;;;-0.09;97.06;99945.69;5040966;28;20021;-82
2021/12/28 01:19:14;;;;;;;66.87;57.70;;;;;;;-0.16;97.24;99943.97;5043782;28;20038;-82
2021/12/28 01:21:39;;;;;;;67.87;57.80;;;;;;;-0.11;97.78;99946.53;5043932;28;20064;-81
2021/12/28 01:24:05;;;;;;;66.73;56.73;;;;;;;-0.13;96.87;99945.69;5042857;28;20021;-81
2021/12/28 01:26:30;;;;;;;63.93;56.93;;;;;;;-0.16;96.99;99930.50;5043923;28;20072;-83
2021/12/28 01:28:56;;;;;;;63.20;56.60;;;;;;;-0.10;96.87;99955.81;5043802;28;20081;-82
2021/12/28 01:31:21;;;;;;;64.20;56.40;;;;;;;-0.12;96.88;99937.28;5037633;28;20029;-83
2021/12/28 01:33:46;;;;;;;62.63;56.00;;;;;;;-0.19;96.72;99936.41;5031559;28;20021;-83
2021/12/28 01:36:12;;;;;;;66.10;58.87;;;;;;;-0.28;97.28;99928.81;5031452;28;20028;-82
2021/12/28 01:38:37;;;;;;;61.53;55.33;;;;;;;-0.24;97.39;99931.34;5028226;28;20029;-83
2021/12/28 01:41:03;;;;;;;62.73;55.20;;;;;;;-0.19;97.50;99934.72;5029704;28;20089;-83
2021/12/28 01:43:29;;;;;;;68.32;58.10;;;;;;;-0.13;96.89;99940.63;5044864;28;20017;-83
2021/12/28 01:46:02;;;;;;;62.23;54.13;;;;;;;-0.10;97.08;99933.88;5028885;28;20044;-83
2021/12/28 01:48:30;;;;;;;65.78;56.90;;;;;;;-0.12;97.22;99940.63;5030866;28;20026;-83
2021/12/28 01:50:59;;;;;;;62.70;55.95;;;;;;;-0.19;97.32;99931.38;5031061;28;20029;-82
2021/12/28 01:53:25;;;;;;;67.05;57.95;;;;;;;-0.18;96.93;99933.03;5031806;28;20064;-84
2021/12/28 01:55:52;;;;;;;;;;;;;;;-0.12;96.67;99932.22;5032093;28;20029;-82
2021/12/28 01:58:17;;;;;;;62.45;54.78;;;;;;;-0.15;97.05;99929.69;5030443;28;20017;-82
2021/12/28 02:00:44;;;;;;;62.80;56.10;;;;;;;-0.19;97.13;99906.09;5029530;28;20025;-82
2021/12/28 02:03:14;;;;;;;65.97;57.83;;;;;;;-0.14;97.25;99914.53;5029485;28;20028;-83
2021/12/28 02:05:39;;;;;;;65.70;57.25;;;;;;;-0.24;96.83;99902.69;5029773;28;20024;-82
2021/12/28 02:08:06;;;;;;;66.10;56.78;;;;;;;-0.14;97.23;99919.56;5030447;28;20452;-82
2021/12/28 02:10:32;;;;;;;63.30;54.92;;;;;;;-0.16;97.09;99887.53;5029359;28;20035;-83
2021/12/28 02:12:57;;;;;;;65.25;56.72;;;;;;;-0.05;96.86;99909.47;5029436;28;20018;-83
2021/12/28 02:15:23;;;;;;;66.80;57.80;;;;;;;-0.13;96.79;99890.91;5029563;28;20450;-83
2021/12/28 02:17:48;;;;;;;67.93;57.33;;;;;;;-0.06;96.34;99897.66;5029549;28;20030;-83
2021/12/28 02:20:16;;;;;;;72.50;58.87;;;;;;;-0.12;96.83;99894.28;5029187;28;20032;-82
2021/12/28 02:22:42;;;;;;;72.72;57.83;;;;;;;-0.09;96.28;99882.50;5029771;28;20030;-83
2021/12/28 02:25:09;;;;;;;68.73;59.07;;;;;;;0.03;96.17;99896.00;5030201;28;20037;-82
2021/12/28 02:27:35;;;;;;;71.35;57.00;;;;;;;0.03;96.54;99896.00;5029767;28;20291;-84
2021/12/28 02:30:03;;;;;;;71.17;58.93;;;;;;;0.05;96.08;99890.09;5029744;28;20045;-84
2021/12/28 02:32:29;;;;;;;70.75;58.00;;;;;;;-0.09;96.60;99871.56;5031556;28;20025;-82
2021/12/28 02:34:55;;;;;;;64.25;55.47;;;;;;;0.04;96.51;99892.63;5041412;28;20040;-81
2021/12/28 02:37:22;;;;;;;61.35;54.78;;;;;;;0.02;96.87;99889.25;5041632;28;20046;-83
2021/12/28 02:39:47;;;;;;;59.47;53.58;;;;;;;-0.01;96.79;99888.41;5041850;28;20049;-83
2021/12/28 02:42:15;;;;;;;69.77;56.60;;;;;;;-0.01;96.04;99879.97;5041398;28;20051;-81
2021/12/28 02:44:41;;;;;;;64.70;56.55;;;;;;;0.02;96.75;99885.03;5041236;28;20100;-82
2021/12/28 02:47:06;;;;;;;64.47;57.47;;;;;;;-0.01;96.29;99885.88;5036930;28;20025;-83
2021/12/28 02:49:31;;;;;;;64.57;55.80;;;;;;;-0.04;96.57;99874.91;5031800;28;20036;-83
2021/12/28 02:52:00;;;;;;;66.23;57.40;;;;;;;-0.08;96.53;99878.28;5033689;28;20028;-84
2021/12/28 02:54:25;;;;;;;67.00;57.45;;;;;;;-0.10;96.51;99868.16;5042325;28;20030;-82
2021/12/28 02:56:50;;;;;;;62.40;55.63;;;;;;;0.04;96.30;99873.22;5042211;28;20105;-81
2021/12/28 02:59:16;;;;;;;68.33;59.10;;;;;;;0.03;96.50;99884.19;5038146;28;20040;-81
2021/12/28 03:01:41;;;;;;;62.73;55.80;;;;;;;0.05;96.43;99880.00;5029917;28;20033;-82
2021/12/28 03:04:07;;;;;;;63.97;56.33;;;;;;;0.03;96.00;99886.72;5031900;28;20026;-83
2021/12/28 03:06:33;;;;;;;;;;;;;;;0.06;96.38;99886.72;5038315;28;20025;-82
2021/12/28 03:08:59;;;;;;;66.50;58.28;;;;;;;-0.07;96.34;99885.03;5036530;28;19909;-83
2021/12/28 03:11:25;;;;;;;;;;;;;;;-0.05;96.67;99883.34;5033321;28;20025;-82
2021/12/28 03:13:53;;;;;;;66.60;57.33;;;;;;;-0.02;96.24;99878.28;5028247;28;19919;-83
2021/12/28 03:16:20;;;;;;;64.63;56.55;;;;;;;-0.05;96.51;99878.28;5028193;28;20056;-83
2021/12/28 03:18:45;;;;;;;;;;;;;;;0.03;96.48;99889.25;5030100;28;20072;-83
2021/12/28 03:21:12;;;;;;;67.93;56.00;;;;;;;0.02;97.05;99876.59;5029673;28;19916;-83
2021/12/28 03:23:38;;;;;;;62.58;55.80;;;;;;;-0.05;96.68;99853.00;5029370;28;20048;-83
2021/12/28 03:26:05;;;;;;;66.03;57.60;;;;;;;-0.08;97.19;99861.44;5025253;28;20014;-83
2021/12/28 03:28:33;;;;;;;66.78;57.53;;;;;;;-0.08;97.16;99863.09;5024493;28;20033;-82
2021/12/28 03:31:00;;;;;;;68.82;58.38;;;;;;;-0.08;96.48;99858.03;5023191;28;20021;-82
2021/12/28 03:33:27;;;;;;;77.90;61.03;;;;;;;-0.30;96.87;99819.28;5023322;28;20022;-83
2021/12/28 03:35:53;;;;;;;73.47;59.05;;;;;;;-0.20;96.90;99823.50;5041022;28;20022;-82
2021/12/28 03:38:18;;;;;;;68.47;60.40;;;;;;;-0.09;96.44;99849.63;5041378;28;20070;-82
2021/12/28 03:40:45;;;;;;;70.97;56.70;;;;;;;-0.01;96.77;99840.34;5036453;28;20033;-82
2021/12/28 03:43:10;;;;;;;61.40;54.95;;;;;;;0.02;96.71;99829.41;5036028;28;20263;-83
2021/12/28 03:45:36;;;;;;;64.73;57.43;;;;;;;-0.13;96.25;99824.34;5031207;28;20032;-83
2021/12/28 03:48:01;;;;;;;63.20;55.80;;;;;;;-0.06;96.47;99823.53;5031848;28;20047;-83
2021/12/28 03:50:26;;;;;;;68.50;59.13;;;;;;;-0.09;96.27;99823.53;5029996;28;20027;-82
2021/12/28 03:52:54;;;;;;;71.40;58.47;;;;;;;-0.04;96.38;99817.59;5030419;28;20025;-83
2021/12/28 03:55:21;;;;;;;70.88;58.97;;;;;;;-0.07;96.50;99814.25;5029835;28;20014;-83
2021/12/28 03:57:47;;;;;;;66.22;55.30;;;;;;;-0.06;96.68;99805.81;5029553;28;20051;-83
2021/12/28 04:00:14;;;;;;;65.20;57.42;;;;;;;-0.14;96.68;99802.44;5030100;28;20021;-83
2021/12/28 04:02:40;;;;;;;77.70;63.05;;;;;;;-0.17;96.77;99797.41;5030247;28;20032;-83
2021/12/28 04:05:06;;;;;;;62.20;55.42;;;;;;;-0.14;96.63;99784.72;5031218;28;20025;-82
2021/12/28 04:07:31;;;;;;;73.15;57.53;;;;;;;-0.09;96.79;99788.13;5033822;28;20030;-84
2021/12/28 04:10:00;;;;;;;64.97;55.10;;;;;;;-0.03;96.96;99795.72;5034942;28;20029;-83
2021/12/28 04:12:26;;;;;;;68.45;58.00;;;;;;;-0.04;96.62;99788.97;5036863;28;20025;-82
2021/12/28 04:14:51;;;;;;;65.88;58.67;;;;;;;-0.08;96.91;99788.13;5038901;28;20129;-83
2021/12/28 04:17:16;;;;;;;67.97;57.23;;;;;;;-0.11;96.11;99782.22;5040235;28;20017;-82
2021/12/28 04:19:42;;;;;;;73.13;58.47;;;;;;;-0.18;96.70;99791.47;5040553;28;20052;-83
2021/12/28 04:22:08;;;;;;;68.53;60.20;;;;;;;-0.16;97.37;99791.47;5040153;28;20085;-83
2021/12/28 04:24:33;;;;;;;74.15;58.67;;;;;;;-0.10;96.53;99779.69;5040203;28;20021;-82
2021/12/28 04:26:58;;;;;;;76.27;59.90;;;;;;;-0.13;97.22;99794.00;5040171;28;20029;-82
2021/12/28 04:29:24;;;;;;;72.07;58.80;;;;;;;-0.09;96.96;99790.66;5039989;28;20013;-82
2021/12/28 04:31:49;;;;;;;65.23;58.23;;;;;;;-0.09;96.42;99783.06;5040150;28;20020;-82
2021/12/28 04:34:14;;;;;;;65.47;58.17;;;;;;;-0.09;96.87;99776.31;5039300;28;20071;-82
2021/12/28 04:36:40;;;;;;;71.27;60.40;;;;;;;-0.14;97.25;99767.03;5033879;28;20018;-82
2021/12/28 04:39:05;;;;;;;71.03;59.70;;;;;;;-0.14;96.73;99762.84;5034108;28;20033;-82
2021/12/28 04:41:31;;;;;;;68.67;59.57;;;;;;;-0.10;96.89;99764.50;5034696;28;20089;-83
2021/12/28 04:44:00;;;;;;;74.33;61.20;;;;;;;-0.07;97.04;99768.72;5035525;28;20025;-82
2021/12/28 04:46:25;;;;;;;74.35;59.60;;;;;;;-0.14;96.87;99760.31;5037098;28;20040;-84
2021/12/28 04:48:51;;;;;;;67.53;58.43;;;;;;;-0.12;97.42;99755.25;5035691;28;20025;-82
2021/12/28 04:51:16;;;;;;;64.87;58.00;;;;;;;-0.17;97.19;99757.78;5035662;28;20032;-82
2021/12/28 04:53:41;;;;;;;78.83;61.20;;;;;;;-0.21;97.15;99751.03;5042156;23;20041;-88
2021/12/28 04:56:07;;;;;;;63.00;56.20;;;;;;;-0.14;97.10;99756.94;5030593;28;20036;-86
2021/12/28 04:58:32;;;;;;;70.50;61.10;;;;;;;-0.23;97.06;99748.50;5029756;28;20033;-88
2021/12/28 05:01:00;;;;;;;72.10;59.73;;;;;;;-0.24;97.18;99753.56;5029149;28;20093;-87
2021/12/28 05:03:34;;;;;;;76.57;59.53;;;;;;;-0.30;96.89;99746.84;5025281;28;20033;-88
2021/12/28 05:05:59;;;;;;;64.78;57.65;;;;;;;-0.16;97.14;99758.63;5009559;28;20408;-87
2021/12/28 05:08:25;;;;;;;80.50;63.00;;;;;;;-0.29;97.19;99748.50;5009618;28;20097;-87
2021/12/28 05:10:52;;;;;;;70.30;58.63;;;;;;;-0.19;97.06;99759.47;5010406;28;20025;-87
2021/12/28 05:13:18;;;;;;;72.53;59.05;;;;;;;-0.21;97.55;99741.78;5026111;28;20086;-87
2021/12/28 05:15:45;;;;;;;69.50;56.42;;;;;;;-0.27;97.55;99741.78;5026101;28;20029;-88
2021/12/28 05:18:11;;;;;;;87.22;64.28;;;;;;;-0.37;97.52;99730.84;5011615;28;20040;-88
2021/12/28 05:20:37;;;;;;;79.50;62.88;;;;;;;-0.25;97.51;99737.56;5013025;28;20036;-88
2021/12/28 05:23:03;;;;;;;74.82;59.78;;;;;;;-0.22;97.27;99729.16;5029208;28;20022;-87
2021/12/28 05:25:28;;;;;;;74.47;59.83;;;;;;;-0.17;97.13;99731.69;5014658;28;20041;-88
2021/12/28 05:27:54;;;;;;;65.70;58.73;;;;;;;-0.11;97.60;99741.75;5028765;28;20143;-86
2021/12/28 05:30:19;;;;;;;59.70;53.67;;;;;;;-0.09;96.63;99740.09;5009170;28;20038;-89
2021/12/28 05:32:45;;;;;;;78.57;58.67;;;;;;;-0.15;96.71;99724.94;5012558;28;20125;-88
2021/12/28 05:35:10;;;;;;;59.23;52.77;;;;;;;-0.06;97.12;99740.91;5031436;28;20053;-88
2021/12/28 05:37:36;;;;;;;73.37;60.63;;;;;;;-0.09;96.83;99745.97;5017864;28;20026;-88
2021/12/28 05:40:03;;;;;;;65.82;58.10;;;;;;;-0.07;96.52;99729.13;5014469;28;20026;-88
2021/12/28 05:42:28;;;;;;;69.50;58.47;;;;;;;-0.06;96.58;99737.56;5026627;28;20025;-87
2021/12/28 05:44:54;;;;;;;66.63;55.50;;;;;;;-0.15;96.30;99724.94;5026260;28;20479;-88
2021/12/28 05:47:20;;;;;;;69.83;58.37;;;;;;;-0.03;96.32;99735.03;5026237;28;20252;-87
2021/12/28 05:49:48;;;;;;;70.20;58.65;;;;;;;-0.13;96.61;99725.75;5025415;28;20032;-88
2021/12/28 05:52:13;;;;;;;77.80;62.13;;;;;;;-0.27;97.18;99730.81;5009681;28;20040;-86
2021/12/28 05:54:39;;;;;;;67.60;60.17;;;;;;;-0.08;96.78;99742.63;5023110;28;20196;-88
2021/12/28 05:57:04;;;;;;;70.37;58.70;;;;;;;-0.09;96.89;99740.09;5006492;28;20022;-87
2021/12/28 05:59:30;;;;;;;73.90;60.47;;;;;;;-0.02;96.64;99740.09;5023893;28;20030;-88
2021/12/28 06:01:55;;;;;;;70.03;59.20;;;;;;;-0.06;96.51;99733.34;5014430;28;20021;-88
2021/12/28 06:04:28;;;;;;;72.28;60.13;;;;;;;0.05;96.56;99732.47;5038647;28;20056;-88
2021/12/28 06:06:53;;;;;;;77.88;61.60;;;;;;;-0.06;97.26;99733.34;5023927;28;20022;-87
2021/12/28 06:09:25;;;;;;;73.90;58.53;;;;;;;-0.10;96.60;99713.13;5039343;28;20016;-88
2021/12/28 06:11:50;;;;;;;73.82;60.47;;;;;;;-0.12;96.54;99699.66;5021522;28;20049;-87
2021/12/28 06:14:15;;;;;;;64.20;57.43;;;;;;;-0.05;97.02;99724.06;5034500;28;20030;-89
2021/12/28 06:16:41;;;;;;;71.63;60.70;;;;;;;0.03;97.70;99734.16;5027927;28;20041;-87
2021/12/28 06:19:06;;;;;;;65.73;57.03;;;;;;;-0.05;97.73;99731.66;5028574;28;20121;-87
2021/12/28 06:21:33;;;;;;;71.97;59.67;;;;;;;-0.22;97.75;99699.66;5022903;28;20018;-88
2021/12/28 06:23:59;;;;;;;83.25;63.88;;;;;;;-0.27;98.34;99714.00;5022560;28;20014;-88
2021/12/28 06:26:26;;;;;;;66.25;59.00;;;;;;;-0.10;98.89;99719.00;5039171;28;20014;-87
2021/12/28 06:28:51;;;;;;;85.50;64.20;;;;;;;-0.13;98.64;99719.00;5038635;28;20018;-88
2021/12/28 06:31:20;;;;;;;71.40;60.23;;;;;;;-0.01;99.35;99728.28;5038942;28;20025;-87
2021/12/28 06:33:45;;;;;;;76.63;60.42;;;;;;;-0.06;99.48;99724.91;5020233;28;20026;-88
2021/12/28 06:36:11;;;;;;;66.70;57.90;;;;;;;-0.07;99.50;99724.06;5010039;28;20036;-87
2021/12/28 06:38:42;;;;;;;66.77;58.00;;;;;;;-0.09;100.00;99727.44;5010968;28;20017;-88
2021/12/28 06:41:08;;;;;;;79.13;62.08;;;;;;;-0.13;100.00;99720.72;5010516;28;20026;-87
2021/12/28 06:43:34;;;;;;;71.70;58.35;;;;;;;-0.11;100.00;99711.44;5010264;28;20081;-89
2021/12/28 06:46:00;;;;;;;83.50;62.28;;;;;;;-0.34;100.00;99687.03;5010922;28;20092;-88
2021/12/28 06:48:31;;;;;;;90.23;64.30;;;;;;;-0.19;100.00;99724.09;5011519;28;20032;-88
2021/12/28 06:50:56;;;;;;;82.38;62.10;;;;;;;-0.26;100.00;99713.13;5027356;28;20025;-87
2021/12/28 06:53:22;;;;;;;81.10;59.07;;;;;;;-0.20;100.00;99703.00;5025274;28;20179;-88
2021/12/28 06:55:50;;;;;;;77.30;62.37;;;;;;;-0.21;100.00;99714.00;5025198;28;20123;-88
2021/12/28 06:58:15;;;;;;;83.63;63.67;;;;;;;-0.25;100.00;99714.00;5026072;28;20037;-90
2021/12/28 07:00:40;;;;;;;74.27;60.80;;;;;;;-0.19;100.00;99708.94;5021250;28;20022;-88
2021/12/28 07:03:08;;;;;;;77.27;59.10;;;;;;;-0.18;100.00;99705.53;5037445;28;20042;-89
2021/12/28 07:05:34;;;;;;;72.90;59.38;;;;;;;-0.25;100.00;99694.59;5037205;28;20018;-90
2021/12/28 07:07:59;;;;;;;83.60;64.17;;;;;;;-0.13;100.00;99705.53;5037180;28;20088;-89
2021/12/28 07:10:27;;;;;;;72.37;60.43;;;;;;;-0.15;100.00;99707.22;5029083;28;20049;-87
2021/12/28 07:12:53;;;;;;;89.15;64.35;;;;;;;-0.22;100.00;99696.28;5010360;28;20053;-88
2021/12/28 07:15:19;;;;;;;90.22;66.13;;;;;;;-0.25;100.00;99694.59;5009782;28;20025;-89
2021/12/28 07:17:45;;;;;;;74.45;63.30;;;;;;;-0.31;100.00;99673.56;5009479;28;20026;-89
2021/12/28 07:20:12;;;;;;;80.75;59.25;;;;;;;-0.13;100.00;99682.78;5010151;28;20025;-88
2021/12/28 07:22:37;;;;;;;88.88;65.78;;;;;;;-0.39;100.00;99676.91;5025604;28;20151;-89
2021/12/28 07:25:05;;;;;;;84.73;62.73;;;;;;;-0.25;100.00;99692.06;5008652;28;20026;-88
2021/12/28 07:27:30;;;;;;;85.03;63.20;;;;;;;-0.20;100.00;99702.19;5008672;28;20033;-88
2021/12/28 07:29:56;;;;;;;79.80;63.20;;;;;;;-0.08;100.00;99692.06;5010499;28;20026;-88
2021/12/28 07:32:21;;;;;;;71.90;59.83;;;;;;;-0.23;100.00;99682.78;5026509;28;20117;-89
2021/12/28 07:34:46;;;;;;;81.07;62.90;;;;;;;-0.18;100.00;99687.84;5036938;28;20045;-89
2021/12/28 07:37:18;;;;;;;60.90;54.83;;;;;;;-0.16;100.00;99683.63;5032881;28;20030;-89
2021/12/28 07:39:50;;;;;;;88.13;65.45;;;;;;;-0.12;100.00;99694.59;5006560;28;20037;-88
2021/12/28 07:42:15;;;;;;;80.38;61.75;;;;;;;-0.04;100.00;99692.88;5008955;28;20029;-88
2021/12/28 07:44:41;;;;;;;83.37;62.53;;;;;;;-0.14;100.00;99681.09;5024810;28;20076;-89
2021/12/28 07:47:06;;;;;;;85.30;63.10;;;;;;;-0.05;100.00;99692.06;5024461;28;20038;-87
2021/12/28 07:49:31;;;;;;;81.17;61.90;;;;;;;-0.11;100.00;99694.59;5023941;28;20111;-88
2021/12/28 07:51:57;;;;;;;83.57;62.27;;;;;;;-0.12;100.00;99676.91;5023419;28;20033;-88
2021/12/28 07:54:22;;;;;;;60.80;54.33;;;;;;;-0.03;100.00;99689.53;5023372;28;20037;-89
2021/12/28 07:56:48;;;;;;;84.07;64.43;;;;;;;-0.13;100.00;99687.84;5024252;28;20584;-89
2021/12/28 07:59:13;;;;;;;80.00;63.40;;;;;;;-0.12;100.00;99690.38;5034329;28;20057;-89
2021/12/28 08:01:39;;;;;;;85.83;62.90;;;;;;;-0.13;100.00;99682.78;5035743;28;20018;-89
2021/12/28 08:04:04;;;;;;;84.87;63.20;;;;;;;-0.08;100.00;99687.00;5020424;28;20140;-89
2021/12/28 08:06:29;;;;;;;86.43;64.53;;;;;;;-0.11;100.00;99673.50;5036599;28;20049;-88
2021/12/28 08:08:55;;;;;;;89.97;64.10;;;;;;;-0.22;100.00;99669.31;5020728;28;20038;-88
2021/12/28 08:11:22;;;;;;;89.70;65.37;;;;;;;-0.10;100.00;99687.84;5037110;28;20022;-88
2021/12/28 08:13:47;;;;;;;92.07;63.80;;;;;;;-0.15;100.00;99670.16;5019788;28;20010;-90
2021/12/28 08:16:13;;;;;;;79.60;61.87;;;;;;;-0.09;100.00;99675.19;5032559;28;20021;-88
2021/12/28 08:18:38;;;;;;;89.43;63.97;;;;;;;-0.12;100.00;99671.84;5016672;28;20018;-88
2021/12/28 08:21:03;;;;;;;92.20;63.80;;;;;;;-0.04;100.00;99685.31;5019949;28;20025;-88
2021/12/28 08:23:31;;;;;;;92.37;65.23;;;;;;;-0.11;100.00;99658.34;5030611;28;20033;-88
2021/12/28 08:25:57;;;;;;;92.78;66.00;;;;;;;-0.07;100.00;99667.59;5011872;28;20025;-88
2021/12/28 08:28:22;;;;;;;87.07;65.23;;;;;;;-0.11;100.00;99660.88;5028700;28;20022;-88
2021/12/28 08:30:48;;;;;;;85.00;63.90;;;;;;;-0.07;100.00;99677.72;5026730;28;20030;-89
2021/12/28 08:33:13;;;;;;;90.27;66.67;;;;;;;-0.04;100.00;99662.56;5026634;28;20029;-89
2021/12/28 08:35:40;;;;;;;87.33;64.53;;;;;;;-0.04;100.00;99652.44;5016807;28;20026;-88
2021/12/28 08:38:08;;;;;;;62.50;56.10;;;;;;;0.05;100.00;99660.00;5020536;28;20018;-89
2021/12/28 08:40:34;;;;;;;96.30;66.50;;;;;;;-0.16;100.00;99632.25;5036847;28;20014;-89
2021/12/28 08:42:59;;;;;;;90.63;64.07;;;;;;;-0.19;100.00;99633.94;5036815;28;20014;-88
2021/12/28 08:45:24;;;;;;;92.03;68.57;;;;;;;-0.19;100.00;99639.00;5020264;28;20330;-87
2021/12/28 08:47:50;;;;;;;97.93;67.80;;;;;;;-0.04;100.00;99658.31;5019880;28;20037;-88
2021/12/28 08:50:16;;;;;;;93.60;69.00;;;;;;;-0.08;100.00;99635.59;5035790;28;20022;-88
2021/12/28 08:52:42;;;;;;;84.88;61.92;;;;;;;0.14;100.00;99667.56;5034990;28;20030;-88
2021/12/28 08:55:08;;;;;;;87.07;63.70;;;;;;;-0.02;100.00;99640.63;5032535;28;20042;-88
2021/12/28 08:57:33;;;;;;;96.93;66.07;;;;;;;0.06;100.00;99664.19;5015035;28;20022;-88
2021/12/28 08:59:58;;;;;;;83.10;64.23;;;;;;;0.00;100.00;99644.00;5029893;28;20033;-89
2021/12/28 09:02:30;;;;;;;93.87;67.33;;;;;;;0.03;100.00;99650.72;5027182;28;20029;-87
2021/12/28 09:04:58;;;;;;;94.47;66.53;;;;;;;-0.14;100.00;99625.47;5026270;28;20030;-88
2021/12/28 09:07:26;;;;;;;93.07;65.95;;;;;;;0.00;100.00;99644.00;5008182;28;20029;-88
2021/12/28 09:09:55;;;;;;;92.72;66.50;;;;;;;0.05;100.00;99642.31;5007358;28;20034;-89
2021/12/28 09:12:21;;;;;;;102.15;66.75;;;;;;;-0.02;100.00;99636.44;5026633;28;20109;-89
2021/12/28 09:14:46;;;;;;;91.07;65.63;;;;;;;0.06;100.00;99633.03;5034040;28;20018;-88
2021/12/28 09:17:17;;;;;;;100.10;66.40;;;;;;;-0.01;100.00;99632.19;5034489;28;19913;-88
2021/12/28 09:19:46;;;;;;;106.03;68.35;;;;;;;0.07;100.00;99635.53;5034942;28;20057;-89
2021/12/28 09:22:11;;;;;;;69.53;58.38;;;;;;;0.04;100.00;99627.97;5013272;28;20030;-88
2021/12/28 09:24:37;;;;;;;91.23;66.30;;;;;;;0.08;100.00;99642.28;5032399;28;20025;-88
2021/12/28 09:27:03;;;;;;;100.63;67.93;;;;;;;0.10;100.00;99645.66;5015848;28;20025;-88
2021/12/28 09:29:29;;;;;;;97.82;68.20;;;;;;;-0.12;100.00;99628.88;5030343;28;20010;-88
2021/12/28 09:31:56;;;;;;;100.10;66.67;;;;;;;-0.12;100.00;99626.34;5010591;28;20486;-88
2021/12/28 09:34:21;;;;;;;;;;;;;;;0.15;100.00;99645.63;5006752;28;20255;-88
2021/12/28 09:36:46;;;;;;;93.72;62.40;;;;;;;0.02;100.00;99624.63;5023224;28;19920;-89
2021/12/28 09:39:12;;;;;;;99.33;70.03;;;;;;;-0.10;100.00;99612.00;5025875;28;20085;-88
2021/12/28 09:41:37;;;;;;;100.97;70.67;;;;;;;-0.07;100.00;99602.72;5010772;28;20395;-88
2021/12/28 09:44:08;;;;;;;102.03;68.67;;;;;;;0.00;100.00;99606.09;5025184;28;20029;-88
2021/12/28 09:46:34;;;;;;;97.45;66.38;;;;;;;0.15;100.00;99626.25;5026460;28;20017;-88
2021/12/28 09:49:01;;;;;;;91.13;64.27;;;;;;;0.17;100.00;99616.94;5026064;28;20395;-89
2021/12/28 09:51:28;;;;;;;91.85;64.30;;;;;;;0.17;100.00;99616.94;5011470;28;20025;-89
2021/12/28 09:53:53;;;;;;;106.20;70.80;;;;;;;0.04;100.00;99600.16;5026971;28;20029;-87
2021/12/28 09:56:19;;;;;;;104.00;69.13;;;;;;;0.06;100.00;99598.44;5026713;28;20120;-87
2021/12/28 09:58:47;;;;;;;96.20;68.63;;;;;;;0.28;100.00;99619.44;5025768;28;20053;-88
2021/12/28 10:01:12;;;;;;;99.95;68.95;;;;;;;0.18;100.00;99606.00;5026517;28;20053;-88
2021/12/28 10:03:37;;;;;;;103.50;69.17;;;;;;;0.25;100.00;99613.56;5024993;28;20086;-87
2021/12/28 10:06:22;;;;;;;101.47;66.27;;;;;;;0.22;100.00;99593.34;5008232;28;20014;-87
2021/12/28 10:09:03;;;;;;;102.47;68.90;;;;;;;0.35;100.00;99607.59;5025140;28;20056;-88
2021/12/28 10:11:42;;;;;;;97.40;68.75;;;;;;;0.36;100.00;99596.63;5009539;28;20037;-88
2021/12/28 10:14:18;;;;;;;91.85;65.32;;;;;;;0.34;100.00;99599.16;5025355;28;20021;-88
2021/12/28 10:16:52;;;;;;;84.55;63.30;;;;;;;0.36;100.00;99597.47;5025034;28;20030;-88
2021/12/28 10:19:31;;;;;;;98.95;68.10;;;;;;;0.35;100.00;99605.06;5026535;28;20502;-88
2021/12/28 10:21:57;;;;;;;94.95;67.15;;;;;;;0.53;100.00;99597.38;5025358;28;20029;-87
2021/12/28 10:24:37;;;;;;;113.37;70.03;;;;;;;0.31;100.00;99571.34;5023286;28;20026;-88
2021/12/28 10:27:30;;;;;;;83.15;66.65;;;;;;;0.46;100.00;99570.44;5008249;28;20044;-87
2021/12/28 10:30:04;;;;;;;90.22;64.70;;;;;;;0.59;100.00;99585.53;5002907;28;20312;-88
2021/12/28 10:32:29;;;;;;;100.22;66.50;;;;;;;0.49;100.00;99547.66;5024802;28;20391;-88
2021/12/28 10:35:00;;;;;;;103.50;69.78;;;;;;;0.53;100.00;99551.84;5023700;28;20048;-87
2021/12/28 10:37:49;;;;;;;103.20;70.70;;;;;;;0.51;100.00;99583.91;5007715;28;20066;-88
2021/12/28 10:40:22;;;;;;;100.35;68.97;;;;;;;0.44;100.00;99567.06;5025194;28;20032;-87
2021/12/28 10:43:01;;;;;;;114.60;72.38;;;;;;;0.56;100.00;99580.50;5007115;28;20046;-88
2021/12/28 10:45:36;;;;;;;107.90;71.32;;;;;;;0.47;100.00;99569.59;5028141;28;20010;-89
2021/12/28 10:48:15;;;;;;;97.70;67.00;;;;;;;0.54;100.00;99566.19;5007185;28;20024;-88
2021/12/28 10:50:48;;;;;;;104.72;68.72;;;;;;;0.59;100.00;99563.63;5023207;28;20029;-89
2021/12/28 10:53:19;;;;;;;121.30;76.82;;;;;;;0.53;100.00;99564.50;5034819;22;20002;-83
2021/12/28 10:55:48;;;;;;;95.57;67.07;;;;;;;0.65;100.00;99558.53;4987032;28;20042;-84
2021/12/28 10:58:22;;;;;;;102.60;69.53;;;;;;;0.43;100.00;99542.63;4972188;28;20022;-84
2021/12/28 11:00:48;;;;;;;106.55;71.38;;;;;;;0.50;100.00;99551.03;4990362;28;20027;-83
2021/12/28 11:03:16;;;;;;;99.30;69.07;;;;;;;0.60;100.00;99539.16;4974047;28;20408;-84
2021/12/28 11:05:44;;;;;;;98.70;65.18;;;;;;;0.64;100.00;99545.88;4990309;28;20026;-84
2021/12/28 11:08:09;;;;;;;102.43;69.60;;;;;;;0.53;100.00;99529.06;4974856;28;20053;-83
2021/12/28 11:10:40;;;;;;;94.10;64.07;;;;;;;0.69;100.00;99528.97;4972926;28;20062;-83
2021/12/28 11:13:06;;;;;;;107.68;70.50;;;;;;;0.62;100.00;99527.31;4973235;28;20023;-83
2021/12/28 11:15:37;;;;;;;109.03;69.40;;;;;;;0.61;100.00;99531.53;4971197;28;20440;-83
2021/12/28 11:18:22;;;;;;;93.15;64.32;;;;;;;0.69;100.00;99527.25;4971713;28;20027;-82